Terminal Aerodrome Forecast
Issued by NWS Denver/Boulder, CO

Home | Current Version | Previous Version | Text Only | Print | Product List | Glossary On
Versions: 1 2 3 4 5 6 7 8 9 10 11 12 13 14 15 16 17 18 19 20 21 22 23 24 25 26 27 28 29 30 31
000
FTUS45 KBOU 260030 AAA
TAFDEN
TAF AMD
KDEN 260030Z 2601/2706 08009KT P6SM SKC
     FM260300 15008KT P6SM SKC
     FM260500 20010KT P6SM FEW140 SCT250
     FM261500 22012KT P6SM FEW120 SCT200
     FM261900 27010KT P6SM SCT080 BKN150
     FM262300 34007KT P6SM SCT080 BKN150=

USA.gov is the U.S. government's official web portal to all federal, state and local government web resources and services.